Карточка аэропорта UUBW

Внимание!
Информация на этой странице в стадии наполнения.
Если вы не увидели какой-то информации, или заметили неточность - пожалуйста сообщите нам!
Спасибо!
Команда RU-STAFF
Название аэропортаЖуковский
Название аэропорта (англ.)Zhukovsky
Превышение1325 ft. (403.9 m.)
Координаты55°33.168', 38°8.9820000000002'
Высота перехода10000 ft
Эшелон переходаQNH>=1013hPa:FL110; QNH<1013hPa:FL120; QNH<977hPa:FL130
Коды ответчика
Зона ОрВДМосква РПИ (UUWV)
Данные METARUUBW 200100Z 18002MPS CAVOK 20/16 Q1008 R30/010060 NOSIG RMK QFE745
Проноз погоды (TAF)UUBW 191956Z 1921/2021 18003MPS 9999 BKN020 TX23/2006Z TN14/2014Z TEMPO 1921/2007 20008G13MPS -TSRA BKN016CB TEMPO 2007/2013 VRB22MPS 1000 TSRAGR SQ SCT007 BKN016CB TEMPO 2013/2018 30008G15MPS BECMG 2018/2021 30005MPS
NOTAMshow/hide NOTAM
AWOS   TABLE

Информация о ВПП

ВПП Длина ВПП (м.) Покрытие Курс ВПП Частота ILS
124600Цементобетон121 
304600Цементобетон301 

Диспетчерские позиции


Сценарии

Сценарий
Нет результатов.


Спутниковое изображение